Fort Eustis, Virginia
Current Conditions -  °F | °C
As of 7:58 AM on Monday 22 Dec 2014 (Local Time) from KFAF Reporting Station
Light Rain Light Rain  
Wind Chill: 34°   Ceiling: Unl
Heat Index: 38°   Visibility: 5mi
Dew Point: 38°   Wind: 6mph
Humidity: 98%   Direction: 40°NE
Pressure: 30.2"   Gusts: NA
Location:  37.13°N, 76.61°W
Report Text: KFAF 221258Z AUTO 04005KT 5SM -RA BR FEW021 SCT029 SCT037 04/03 A3020 RMK AO2 DZB1202E1213 SLP230 P0006 T00360033 $
Loading
Personal Weather Stations






























Interactive Weather Map New forecast layout! Learn more

10-Day Weather Forecast

Advertisements
Track Severe Weather on mobile